Scantic, Connecticut
Current Conditions -  °F | °C
As of 9:51 PM on Monday 26 Jan 2015 (Local Time) from KBDL Reporting Station
Light Snow Light Snow  
Wind Chill:   Ceiling: 2400
Heat Index: 20°   Visibility: 1.5mi
Dew Point: 15°   Wind: 21mph
Humidity: 81%   Direction: 10°N
Pressure: 29.86"   Gusts: 30mph
Location:  41.9062°N, 72.5958°W
Report Text: KBDL 270251Z 01018G26KT 1 1/2SM -SN OVC024 M07/M09 A2986 RMK AO2 PK WND 01026/0244 SFC VIS 2 PRESFR SLP114 P0001 60003 T10671094 58038
Loading
Personal Weather Stations






























Interactive Weather Map New forecast layout! Learn more

10-Day Weather Forecast

Advertisements
Track Severe Weather on mobile